createdAt,value
2023-05-08T00:00:58.041Z,21.60
2023-05-08T00:03:45.438Z,21.60
2023-05-08T00:06:32.757Z,21.70
2023-05-08T00:09:21.406Z,21.60
2023-05-08T00:12:08.913Z,21.60
2023-05-08T00:14:56.220Z,21.60
2023-05-08T00:17:43.435Z,21.60
2023-05-08T00:20:30.753Z,21.60
2023-05-08T00:23:17.902Z,21.60
2023-05-08T00:26:05.234Z,21.50
2023-05-08T00:28:52.498Z,21.50
2023-05-08T00:31:39.884Z,21.40
2023-05-08T00:34:27.104Z,21.40
2023-05-08T00:37:14.329Z,21.30
2023-05-08T00:40:01.649Z,21.40
2023-05-08T00:42:48.847Z,21.30
2023-05-08T00:45:37.991Z,21.30
2023-05-08T00:48:27.951Z,21.30
2023-05-08T00:51:16.343Z,21.30
2023-05-08T00:54:03.924Z,21.30
2023-05-08T00:56:53.171Z,21.30
2023-05-08T00:59:41.856Z,21.30
2023-05-08T01:02:31.763Z,21.20
2023-05-08T01:05:19.208Z,21.20
2023-05-08T01:08:06.658Z,21.10
2023-05-08T01:11:27.845Z,21.10
2023-05-08T01:14:19.499Z,21.10
2023-05-08T01:17:11.774Z,21.10
2023-05-08T01:20:20.695Z,21.00
2023-05-08T01:23:16.522Z,21.00
2023-05-08T01:26:15.897Z,20.90
2023-05-08T01:29:27.821Z,20.90
2023-05-08T01:32:20.970Z,20.90
2023-05-08T01:35:17.203Z,20.90
2023-05-08T01:38:14.010Z,20.90
2023-05-08T01:41:10.614Z,21.00
2023-05-08T01:44:18.186Z,21.00
2023-05-08T01:47:11.659Z,21.10
2023-05-08T01:50:22.346Z,21.10
2023-05-08T01:53:23.087Z,21.10
2023-05-08T01:56:17.243Z,21.20
2023-05-08T01:59:06.821Z,21.20
2023-05-08T02:01:57.234Z,21.30
2023-05-08T02:04:45.556Z,21.30
2023-05-08T02:07:35.259Z,21.40
2023-05-08T02:10:25.345Z,21.40
2023-05-08T02:13:14.628Z,21.50
2023-05-08T02:16:03.256Z,21.50
2023-05-08T02:18:54.029Z,21.60
2023-05-08T02:21:41.861Z,21.60
2023-05-08T02:24:32.264Z,21.70
2023-05-08T02:27:22.241Z,21.70
2023-05-08T02:30:11.742Z,21.70
2023-05-08T02:33:01.096Z,21.70
2023-05-08T02:35:50.882Z,21.80
2023-05-08T02:38:39.830Z,21.80
2023-05-08T02:41:31.123Z,21.80
2023-05-08T02:44:18.974Z,21.90
2023-05-08T02:47:18.045Z,21.90
2023-05-08T02:50:15.006Z,21.80
2023-05-08T02:53:09.402Z,21.80
2023-05-08T02:56:02.411Z,21.90
2023-05-08T02:58:57.984Z,21.90
2023-05-08T03:02:00.066Z,21.80
2023-05-08T03:04:53.561Z,21.80
2023-05-08T03:07:42.724Z,21.80
2023-05-08T03:10:33.829Z,21.80
2023-05-08T03:13:21.562Z,21.70
2023-05-08T03:16:15.200Z,21.70
2023-05-08T03:19:07.574Z,21.70
2023-05-08T03:21:56.036Z,21.70
2023-05-08T03:24:44.298Z,21.70
2023-05-08T03:27:33.213Z,21.70
2023-05-08T03:30:21.229Z,21.70
2023-05-08T03:33:09.442Z,21.60
2023-05-08T03:35:57.719Z,21.60
2023-05-08T03:38:45.450Z,21.60
2023-05-08T03:41:32.683Z,21.60
2023-05-08T03:44:20.631Z,21.60
2023-05-08T03:47:08.789Z,21.60
2023-05-08T03:49:57.442Z,21.60
2023-05-08T03:52:44.781Z,21.70
2023-05-08T03:55:32.401Z,21.70
2023-05-08T03:58:29.304Z,21.70
2023-05-08T04:01:42.545Z,21.80
2023-05-08T04:04:41.332Z,21.80
2023-05-08T04:07:37.719Z,21.80
2023-05-08T04:10:32.646Z,21.80
2023-05-08T04:13:26.028Z,21.80
2023-05-08T04:16:21.721Z,21.80
2023-05-08T04:19:18.389Z,21.70
2023-05-08T04:22:08.121Z,21.70
2023-05-08T04:24:58.633Z,21.60
2023-05-08T04:27:46.656Z,21.60
2023-05-08T04:30:33.964Z,21.60
2023-05-08T04:33:21.785Z,21.70
2023-05-08T04:36:13.383Z,21.70
2023-05-08T04:39:00.779Z,21.70
2023-05-08T04:41:48.918Z,21.70
2023-05-08T04:44:36.212Z,21.70
2023-05-08T04:47:24.271Z,21.60
2023-05-08T04:50:12.267Z,21.60
2023-05-08T04:52:59.450Z,21.50
2023-05-08T04:55:46.678Z,21.50
2023-05-08T04:58:33.904Z,21.50
2023-05-08T05:01:21.160Z,21.60
2023-05-08T05:04:08.603Z,21.60
2023-05-08T05:06:56.013Z,21.60
2023-05-08T05:09:43.319Z,21.60
2023-05-08T05:12:30.523Z,21.60
2023-05-08T05:15:17.770Z,21.70
2023-05-08T05:18:05.044Z,21.60
2023-05-08T05:20:52.429Z,21.60
2023-05-08T05:23:39.649Z,21.60
2023-05-08T05:26:26.869Z,21.60
2023-05-08T05:29:14.137Z,21.60
2023-05-08T05:32:02.322Z,21.70
2023-05-08T05:34:49.672Z,21.70
2023-05-08T05:37:37.345Z,21.70
2023-05-08T05:40:24.561Z,21.80
2023-05-08T05:43:11.931Z,21.80
2023-05-08T05:46:06.520Z,21.80
2023-05-08T05:48:54.028Z,21.80
2023-05-08T05:51:41.741Z,21.80
2023-05-08T05:54:28.909Z,21.90
2023-05-08T05:57:16.202Z,21.90
2023-05-08T06:00:04.903Z,21.90
2023-05-08T06:02:52.165Z,21.90
2023-05-08T06:05:40.490Z,21.90
2023-05-08T06:08:27.766Z,21.90
2023-05-08T06:11:14.916Z,21.90
2023-05-08T06:14:02.175Z,21.90
2023-05-08T06:16:49.537Z,21.90
2023-05-08T06:19:36.915Z,22.00
2023-05-08T06:22:24.580Z,22.00
2023-05-08T06:25:12.117Z,22.10
2023-05-08T06:27:59.794Z,22.10
2023-05-08T06:30:47.186Z,22.20
2023-05-08T06:33:34.423Z,22.20
2023-05-08T06:36:21.626Z,22.30
2023-05-08T06:39:09.140Z,22.30
2023-05-08T06:41:56.353Z,22.30
2023-05-08T06:44:43.525Z,22.40
2023-05-08T06:47:30.878Z,22.40
2023-05-08T06:50:18.124Z,22.50
2023-05-08T06:53:05.566Z,22.50
2023-05-08T06:55:52.922Z,22.50
2023-05-08T06:58:40.099Z,22.50
2023-05-08T07:01:27.723Z,22.50
2023-05-08T07:04:15.080Z,22.50
2023-05-08T07:07:02.505Z,22.50
2023-05-08T07:09:49.700Z,22.60
2023-05-08T07:12:36.926Z,22.60
2023-05-08T07:15:26.580Z,22.60
2023-05-08T07:18:14.238Z,22.60
2023-05-08T07:21:01.433Z,22.70
2023-05-08T07:23:51.642Z,22.70
2023-05-08T07:26:38.930Z,22.80
2023-05-08T07:29:27.128Z,22.80
2023-05-08T07:32:15.326Z,22.80
2023-05-08T07:35:03.807Z,22.90
2023-05-08T07:37:51.103Z,22.90
2023-05-08T07:40:38.263Z,23.00
2023-05-08T07:43:25.511Z,23.00
2023-05-08T07:46:19.106Z,23.00
2023-05-08T07:49:06.425Z,23.00
2023-05-08T07:51:53.622Z,23.00
2023-05-08T07:54:40.776Z,23.00
2023-05-08T07:57:27.998Z,23.00
2023-05-08T08:00:16.609Z,23.00
2023-05-08T08:03:04.228Z,23.00
2023-05-08T08:05:51.492Z,23.10
2023-05-08T08:08:39.183Z,23.20
2023-05-08T08:11:26.410Z,23.20
2023-05-08T08:14:13.536Z,23.20
2023-05-08T08:17:00.786Z,23.20
2023-05-08T08:19:48.094Z,23.20
2023-05-08T08:22:37.407Z,23.30
2023-05-08T08:25:24.670Z,23.30
2023-05-08T08:28:11.934Z,23.30
2023-05-08T08:30:59.140Z,23.40
2023-05-08T08:33:46.757Z,23.40
2023-05-08T08:36:34.512Z,23.50
2023-05-08T08:39:23.060Z,23.50
2023-05-08T08:42:10.252Z,23.50
2023-05-08T08:44:57.564Z,23.60
2023-05-08T08:47:46.286Z,23.60
2023-05-08T08:50:33.933Z,23.60
2023-05-08T08:53:30.926Z,23.60
2023-05-08T08:56:21.395Z,23.60
2023-05-08T08:59:09.236Z,23.50
2023-05-08T09:02:06.587Z,23.50
2023-05-08T09:04:54.159Z,23.40
2023-05-08T09:07:43.853Z,23.40
2023-05-08T09:10:31.138Z,23.40
2023-05-08T09:13:19.782Z,23.30
2023-05-08T09:16:07.629Z,23.30
2023-05-08T09:18:54.849Z,23.30
2023-05-08T09:21:42.747Z,23.30
2023-05-08T09:24:58.828Z,23.30
2023-05-08T09:27:46.199Z,23.40
2023-05-08T09:30:50.544Z,23.30
2023-05-08T09:33:44.805Z,23.40
2023-05-08T09:36:32.112Z,23.50
2023-05-08T09:39:26.377Z,23.50
2023-05-08T09:42:14.213Z,23.60
2023-05-08T09:45:01.469Z,23.70
2023-05-08T09:47:48.884Z,23.80
2023-05-08T09:50:36.221Z,23.90
2023-05-08T09:53:31.827Z,24.10
2023-05-08T09:56:38.929Z,24.20
2023-05-08T09:59:33.982Z,24.20
2023-05-08T10:02:21.621Z,24.30
2023-05-08T10:05:30.200Z,24.40
2023-05-08T10:08:19.676Z,24.40
2023-05-08T10:11:17.811Z,24.50
2023-05-08T10:14:05.248Z,24.60
2023-05-08T10:16:54.445Z,24.70
2023-05-08T10:19:46.096Z,24.80
2023-05-08T10:22:37.496Z,24.80
2023-05-08T10:25:25.779Z,24.80
2023-05-08T10:28:24.456Z,24.80
2023-05-08T10:31:14.971Z,24.90
2023-05-08T10:34:04.621Z,24.90
2023-05-08T10:36:54.192Z,24.90
2023-05-08T10:39:43.136Z,25.00
2023-05-08T10:42:31.220Z,25.00
2023-05-08T10:45:18.984Z,25.00
2023-05-08T10:48:13.862Z,25.00
2023-05-08T10:51:13.761Z,25.00
2023-05-08T10:54:19.393Z,25.10
2023-05-08T10:57:12.938Z,25.20
2023-05-08T11:00:00.233Z,25.20
2023-05-08T11:02:49.110Z,25.30
2023-05-08T11:05:49.155Z,25.50
2023-05-08T11:08:46.765Z,25.60
2023-05-08T11:11:39.301Z,25.60
2023-05-08T11:14:28.530Z,25.60
2023-05-08T11:17:24.348Z,25.60
2023-05-08T11:20:11.991Z,25.60
2023-05-08T11:23:22.902Z,25.60
2023-05-08T11:26:14.979Z,25.60
2023-05-08T11:29:02.188Z,25.70
2023-05-08T11:31:50.968Z,25.70
2023-05-08T11:34:44.275Z,25.70
2023-05-08T11:37:34.143Z,25.80
2023-05-08T11:41:00.886Z,25.80
2023-05-08T11:44:09.663Z,25.70
2023-05-08T11:46:58.061Z,25.70
2023-05-08T11:49:45.300Z,25.60
2023-05-08T11:52:34.693Z,25.50
2023-05-08T11:55:22.401Z,25.50
2023-05-08T11:58:13.497Z,25.50
2023-05-08T12:01:00.866Z,25.60
2023-05-08T12:03:48.109Z,25.60
2023-05-08T12:06:38.051Z,25.80
2023-05-08T12:09:25.387Z,25.80
2023-05-08T12:12:12.567Z,25.90
2023-05-08T12:14:59.702Z,25.90
2023-05-08T12:17:47.198Z,25.90
2023-05-08T12:20:34.429Z,25.90
2023-05-08T12:23:21.710Z,25.90
2023-05-08T12:26:08.962Z,25.90
2023-05-08T12:28:57.037Z,26.00
2023-05-08T12:31:44.397Z,26.20
2023-05-08T12:34:31.739Z,26.20
2023-05-08T12:37:27.860Z,26.20
2023-05-08T12:40:31.913Z,26.30
2023-05-08T12:43:19.224Z,26.30
2023-05-08T12:46:11.410Z,26.30
2023-05-08T12:49:04.476Z,26.30
2023-05-08T12:51:52.860Z,26.40
2023-05-08T12:54:46.184Z,26.50
2023-05-08T12:57:36.857Z,26.60
2023-05-08T13:00:24.114Z,26.60
2023-05-08T13:03:27.765Z,26.70
2023-05-08T13:06:22.178Z,26.70
2023-05-08T13:09:09.396Z,26.80
2023-05-08T13:11:56.816Z,26.90
2023-05-08T13:14:44.009Z,27.00
2023-05-08T13:17:31.239Z,27.10
2023-05-08T13:20:18.420Z,27.20
2023-05-08T13:23:06.294Z,27.20
2023-05-08T13:25:53.588Z,27.20
2023-05-08T13:28:40.786Z,27.20
2023-05-08T13:31:28.060Z,27.20
2023-05-08T13:34:15.255Z,27.20
2023-05-08T13:37:02.575Z,27.10
2023-05-08T13:39:49.824Z,27.10
2023-05-08T13:42:37.440Z,27.10
2023-05-08T13:45:24.657Z,27.10
2023-05-08T13:48:11.947Z,27.10
2023-05-08T13:50:59.154Z,27.00
2023-05-08T13:53:46.482Z,26.90
2023-05-08T13:56:33.719Z,26.90
2023-05-08T13:59:21.067Z,26.90
2023-05-08T14:02:08.441Z,26.90
2023-05-08T14:04:55.729Z,26.80
2023-05-08T14:07:43.893Z,26.70
2023-05-08T14:10:31.200Z,26.70
2023-05-08T14:13:18.417Z,26.70
2023-05-08T14:16:08.207Z,26.80
2023-05-08T14:18:55.964Z,26.90
2023-05-08T14:21:45.034Z,26.80
2023-05-08T14:24:32.302Z,26.70
2023-05-08T14:27:19.567Z,26.70
2023-05-08T14:30:07.479Z,26.70
2023-05-08T14:32:54.721Z,26.80
2023-05-08T14:35:43.306Z,26.60
2023-05-08T14:38:30.819Z,26.50
2023-05-08T14:41:18.052Z,26.60
2023-05-08T14:44:05.382Z,26.60
2023-05-08T14:46:52.542Z,26.70
2023-05-08T14:49:39.736Z,26.80
2023-05-08T14:52:27.017Z,27.00
2023-05-08T14:58:27.381Z,27.10
2023-05-08T15:01:14.616Z,27.20
2023-05-08T15:04:02.036Z,27.10
2023-05-08T15:06:49.392Z,27.10
2023-05-08T15:09:36.789Z,27.10
2023-05-08T15:12:26.117Z,27.20
2023-05-08T15:15:13.547Z,27.30
2023-05-08T15:18:00.927Z,27.20
2023-05-08T15:20:48.181Z,27.30
2023-05-08T15:23:35.464Z,27.40
2023-05-08T15:26:23.279Z,27.40
2023-05-08T15:29:10.537Z,27.40
2023-05-08T15:31:57.833Z,27.40
2023-05-08T15:34:45.027Z,27.30
2023-05-08T15:37:32.265Z,27.20
2023-05-08T15:40:19.589Z,27.10
2023-05-08T15:43:07.023Z,27.10
2023-05-08T15:45:54.335Z,26.80
2023-05-08T15:48:41.489Z,26.60
2023-05-08T15:51:29.012Z,26.60
2023-05-08T15:54:16.202Z,26.40
2023-05-08T15:57:03.471Z,26.30
2023-05-08T15:59:50.796Z,26.20
2023-05-08T16:02:38.043Z,26.10
2023-05-08T16:05:25.870Z,26.10
2023-05-08T16:08:13.856Z,26.10
2023-05-08T16:11:01.799Z,26.00
2023-05-08T16:13:49.008Z,26.00
2023-05-08T16:16:37.853Z,26.00
2023-05-08T16:19:25.248Z,26.00
2023-05-08T16:22:12.490Z,26.00
2023-05-08T16:24:59.656Z,26.00
2023-05-08T16:27:46.925Z,26.00
2023-05-08T16:30:34.167Z,26.00
2023-05-08T16:33:21.358Z,26.00
2023-05-08T16:36:08.923Z,25.80
2023-05-08T16:38:56.100Z,25.60
2023-05-08T16:41:43.486Z,25.60
2023-05-08T16:44:30.780Z,25.60
2023-05-08T16:47:17.950Z,25.40
2023-05-08T16:50:05.772Z,25.40
2023-05-08T16:52:52.953Z,25.30
2023-05-08T16:55:40.188Z,25.40
2023-05-08T16:58:27.881Z,25.50
2023-05-08T17:01:15.080Z,25.60
2023-05-08T17:04:02.246Z,25.70
2023-05-08T17:06:49.423Z,25.70
2023-05-08T17:09:36.651Z,25.80
2023-05-08T17:12:24.794Z,26.00
2023-05-08T17:15:12.229Z,26.20
2023-05-08T17:17:59.667Z,26.30
2023-05-08T17:20:46.926Z,26.30
2023-05-08T17:23:34.116Z,26.30
2023-05-08T17:26:22.966Z,26.30
2023-05-08T17:29:10.348Z,26.20
2023-05-08T17:31:57.563Z,26.10
2023-05-08T17:34:46.176Z,25.90
2023-05-08T17:37:33.364Z,25.70
2023-05-08T17:40:20.556Z,25.60
2023-05-08T17:43:10.999Z,25.60
2023-05-08T17:45:58.234Z,25.50
2023-05-08T17:48:45.437Z,25.40
2023-05-08T17:51:32.863Z,25.40
2023-05-08T17:54:19.960Z,25.40
2023-05-08T17:57:07.187Z,25.40
2023-05-08T17:59:54.432Z,25.40
2023-05-08T18:02:41.787Z,25.30
2023-05-08T18:05:30.503Z,25.30
2023-05-08T18:08:17.708Z,25.20
2023-05-08T18:11:04.940Z,25.10
2023-05-08T18:13:55.635Z,25.00
2023-05-08T18:16:42.831Z,25.10
2023-05-08T18:19:30.070Z,25.10
2023-05-08T18:22:22.296Z,25.10
2023-05-08T18:25:09.822Z,25.20
2023-05-08T18:27:58.868Z,25.20
2023-05-08T18:30:46.150Z,25.10
2023-05-08T18:33:33.410Z,25.20
2023-05-08T18:36:20.638Z,25.10
2023-05-08T18:39:07.830Z,25.00
2023-05-08T18:41:55.050Z,25.00
2023-05-08T18:44:42.388Z,24.90
2023-05-08T18:47:29.747Z,24.80
2023-05-08T18:50:17.512Z,24.60
2023-05-08T18:53:04.804Z,24.60
2023-05-08T18:55:52.946Z,24.60
2023-05-08T18:58:40.395Z,24.50
2023-05-08T19:01:27.620Z,24.50
2023-05-08T19:04:14.907Z,24.40
2023-05-08T19:07:02.155Z,24.40
2023-05-08T19:09:49.381Z,24.30
2023-05-08T19:12:36.593Z,24.30
2023-05-08T19:15:23.821Z,24.20
2023-05-08T19:18:11.080Z,24.10
2023-05-08T19:20:58.403Z,23.90
2023-05-08T19:23:45.775Z,23.90
2023-05-08T19:26:33.126Z,23.90
2023-05-08T19:29:20.521Z,24.00
2023-05-08T19:32:07.984Z,24.10
2023-05-08T19:34:57.401Z,24.10
2023-05-08T19:37:45.146Z,24.10
2023-05-08T19:40:33.126Z,24.10
2023-05-08T19:43:26.839Z,24.00
2023-05-08T19:46:14.286Z,24.00
2023-05-08T19:49:01.743Z,24.00
2023-05-08T19:51:49.520Z,24.10
2023-05-08T19:54:36.785Z,24.00
2023-05-08T19:57:24.062Z,24.10
2023-05-08T20:00:12.398Z,24.00
2023-05-08T20:02:59.953Z,24.00
2023-05-08T20:05:47.278Z,24.00
2023-05-08T20:08:34.567Z,23.90
2023-05-08T20:11:22.123Z,24.00
2023-05-08T20:14:09.327Z,24.00
2023-05-08T20:16:56.561Z,23.90
2023-05-08T20:19:44.014Z,23.90
2023-05-08T20:22:31.404Z,23.90
2023-05-08T20:25:18.948Z,23.90
2023-05-08T20:28:06.236Z,23.90
2023-05-08T20:30:53.694Z,23.90
2023-05-08T20:33:41.053Z,23.80
2023-05-08T20:36:28.362Z,23.80
2023-05-08T20:39:15.783Z,23.80
2023-05-08T20:42:03.051Z,23.80
2023-05-08T20:44:50.383Z,23.80
2023-05-08T20:47:37.731Z,23.80
2023-05-08T20:50:25.092Z,23.70
2023-05-08T20:53:12.347Z,23.60
2023-05-08T20:56:03.972Z,23.50
2023-05-08T20:58:51.247Z,23.50
2023-05-08T21:04:25.990Z,23.50
2023-05-08T21:07:13.268Z,23.40
2023-05-08T21:10:00.588Z,23.40
2023-05-08T21:12:47.753Z,23.40
2023-05-08T21:15:35.130Z,23.40
2023-05-08T21:18:22.385Z,23.40
2023-05-08T21:21:20.088Z,23.30
2023-05-08T21:24:07.343Z,23.30
2023-05-08T21:26:54.649Z,23.30
2023-05-08T21:29:41.867Z,23.20
2023-05-08T21:32:29.089Z,23.20
2023-05-08T21:35:16.599Z,23.20
2023-05-08T21:38:05.740Z,23.20
2023-05-08T21:40:53.744Z,23.20
2023-05-08T21:43:41.146Z,23.20
2023-05-08T21:46:28.469Z,23.20
2023-05-08T21:49:15.742Z,23.20
2023-05-08T21:52:02.985Z,23.10
2023-05-08T21:54:50.529Z,23.10
2023-05-08T21:57:38.380Z,23.20
2023-05-08T22:00:27.067Z,23.20
2023-05-08T22:03:14.641Z,23.20
2023-05-08T22:06:01.995Z,23.20
2023-05-08T22:08:49.138Z,23.10
2023-05-08T22:11:36.303Z,23.10
2023-05-08T22:14:23.575Z,23.10
2023-05-08T22:17:10.858Z,23.10
2023-05-08T22:19:58.089Z,23.10
2023-05-08T22:22:45.891Z,23.10
2023-05-08T22:25:33.099Z,23.10
2023-05-08T22:28:20.235Z,23.10
2023-05-08T22:31:07.610Z,23.00
2023-05-08T22:33:54.819Z,23.00
2023-05-08T22:36:42.099Z,23.00
2023-05-08T22:39:29.258Z,23.00
2023-05-08T22:42:16.765Z,23.00
2023-05-08T22:45:04.527Z,23.00
2023-05-08T22:47:51.879Z,23.00
2023-05-08T22:50:39.140Z,23.00
2023-05-08T22:53:26.334Z,23.00
2023-05-08T22:56:13.505Z,23.00
2023-05-08T22:59:00.733Z,23.00
2023-05-08T23:01:47.904Z,23.00
2023-05-08T23:04:35.594Z,22.90
2023-05-08T23:07:22.792Z,22.90
2023-05-08T23:10:10.555Z,22.90
2023-05-08T23:12:57.787Z,22.90
2023-05-08T23:15:45.043Z,22.90
2023-05-08T23:18:34.076Z,22.90
2023-05-08T23:21:21.407Z,22.90
2023-05-08T23:24:08.690Z,22.80
2023-05-08T23:26:55.852Z,22.90
2023-05-08T23:29:43.073Z,22.80
2023-05-08T23:32:30.272Z,22.80
2023-05-08T23:35:17.652Z,22.80
2023-05-08T23:38:04.844Z,22.80
2023-05-08T23:40:52.320Z,22.80
2023-05-08T23:43:39.687Z,22.80
2023-05-08T23:46:26.877Z,22.70
2023-05-08T23:49:14.127Z,22.70
2023-05-08T23:52:01.323Z,22.70
2023-05-08T23:54:48.756Z,22.70
2023-05-08T23:57:36.105Z,22.70
